Time;durP1;ratioP1;P1;durP2;ratioP2;P2;SDS_P1;SDS_P2;PMS_P1;PMS_P2;Temp;Humidity;BMP_temperature;BMP_pressure;BME280_temperature;BME280_humidity;BME280_pressure;Samples;Min_cycle;Max_cycle;Signal;HPM_P1;HPM_P2
2024/04/06 00:02:17;;;;;;;8.47;7.80;;;13.20;99.90;;;;;;5036908;28;20226;-75
2024/04/06 00:04:43;;;;;;;8.30;7.60;;;13.10;99.90;;;;;;5035433;28;20197;-75
2024/04/06 00:07:10;;;;;;;8.10;7.50;;;13.00;99.90;;;;;;5025779;28;20805;-75
2024/04/06 00:09:36;;;;;;;8.30;7.60;;;13.00;99.90;;;;;;5039198;28;20242;-75
2024/04/06 00:12:05;;;;;;;8.10;7.50;;;12.90;99.90;;;;;;5030057;28;20183;-74
2024/04/06 00:14:31;;;;;;;8.47;7.80;;;12.90;99.90;;;;;;5022885;28;20600;-75
2024/04/06 00:16:58;;;;;;;7.90;7.20;;;12.90;99.90;;;;;;5030808;28;20293;-75
2024/04/06 00:19:24;;;;;;;8.60;7.90;;;12.80;99.90;;;;;;5041920;28;20281;-75
2024/04/06 00:21:51;;;;;;;7.90;7.30;;;12.70;99.90;;;;;;5034781;28;20554;-75
2024/04/06 00:24:17;;;;;;;8.20;7.57;;;12.60;99.90;;;;;;5043769;28;20839;-75
2024/04/06 00:26:44;;;;;;;8.80;8.00;;;12.60;99.90;;;;;;5036384;28;20216;-75
2024/04/06 00:29:11;;;;;;;8.50;7.73;;;12.50;99.90;;;;;;5036507;28;20635;-75
2024/04/06 00:31:38;;;;;;;8.10;7.50;;;12.40;99.90;;;;;;5022670;28;20261;-75
2024/04/06 00:34:04;;;;;;;8.03;7.43;;;12.40;99.90;;;;;;5030898;28;20701;-75
2024/04/06 00:36:32;;;;;;;7.93;7.33;;;12.40;99.90;;;;;;5041148;28;20295;-75
2024/04/06 00:38:58;;;;;;;7.80;7.20;;;12.30;99.90;;;;;;5031302;28;20238;-75
2024/04/06 00:41:25;;;;;;;8.13;7.53;;;12.30;99.90;;;;;;5043307;28;20191;-75
2024/04/06 00:43:51;;;;;;;8.30;7.70;;;12.30;99.90;;;;;;5040134;28;20199;-75
2024/04/06 00:46:19;;;;;;;8.10;7.50;;;12.30;99.90;;;;;;5032140;28;20192;-75
2024/04/06 00:48:46;;;;;;;8.20;7.60;;;12.20;99.90;;;;;;5025681;28;20227;-75
2024/04/06 00:51:13;;;;;;;8.93;8.03;;;12.20;99.90;;;;;;5036266;28;20203;-75
2024/04/06 00:53:40;;;;;;;8.20;7.60;;;12.10;99.90;;;;;;5025344;28;20546;-75
2024/04/06 00:56:07;;;;;;;8.07;7.53;;;12.10;99.90;;;;;;5034258;28;20203;-75
2024/04/06 00:58:33;;;;;;;8.50;7.90;;;12.00;99.90;;;;;;5036514;28;20218;-75
2024/04/06 01:01:00;;;;;;;8.00;7.30;;;12.00;99.90;;;;;;5041725;28;20189;-75
2024/04/06 01:03:27;;;;;;;8.50;7.83;;;12.00;99.90;;;;;;5036406;28;20199;-75
2024/04/06 01:05:54;;;;;;;8.20;7.60;;;11.90;99.90;;;;;;5035748;28;20203;-75
2024/04/06 01:08:20;;;;;;;8.67;7.97;;;11.90;99.90;;;;;;5036292;28;20230;-75
2024/04/06 01:10:46;;;;;;;8.00;7.40;;;11.80;99.90;;;;;;5040333;28;20578;-75
2024/04/06 01:13:12;;;;;;;8.33;7.53;;;11.70;99.90;;;;;;5038034;28;20249;-75
2024/04/06 01:15:39;;;;;;;8.53;7.83;;;11.70;99.90;;;;;;5042414;28;20230;-75
2024/04/06 01:18:05;;;;;;;8.60;7.87;;;11.60;99.90;;;;;;5020187;28;20607;-75
2024/04/06 01:20:35;;;;;;;8.93;8.03;;;11.60;99.90;;;;;;5032985;28;20191;-75
2024/04/06 01:23:02;;;;;;;8.43;7.63;;;11.60;99.90;;;;;;5026523;28;20219;-75
2024/04/06 01:25:30;;;;;;;8.50;7.80;;;11.50;99.90;;;;;;5018352;28;20223;-75
2024/04/06 01:27:56;;;;;;;8.43;7.67;;;11.40;99.90;;;;;;5037856;28;20259;-75
2024/04/06 01:30:22;;;;;;;9.03;8.23;;;11.40;99.90;;;;;;5032226;28;20191;-75
2024/04/06 01:32:49;;;;;;;8.63;8.00;;;11.30;99.90;;;;;;5036438;28;20272;-75
2024/04/06 01:35:16;;;;;;;8.77;8.07;;;11.30;99.90;;;;;;5021184;28;20290;-75
2024/04/06 01:37:42;;;;;;;8.77;8.17;;;11.20;99.90;;;;;;5029528;28;20277;-74
2024/04/06 01:40:09;;;;;;;8.40;7.80;;;11.20;99.90;;;;;;5039873;28;20238;-75
2024/04/06 01:42:37;;;;;;;9.10;8.37;;;11.10;99.90;;;;;;5034090;28;20233;-75
2024/04/06 01:45:04;;;;;;;8.23;7.63;;;11.10;99.90;;;;;;5036266;28;20619;-75
2024/04/06 01:47:30;;;;;;;8.30;7.60;;;11.20;99.90;;;;;;5034137;28;20195;-75
2024/04/06 01:49:57;;;;;;;8.60;7.90;;;11.20;99.90;;;;;;5039101;28;20184;-75
2024/04/06 01:52:23;;;;;;;8.70;8.00;;;11.20;99.90;;;;;;5036928;28;20260;-75
2024/04/06 01:54:50;;;;;;;8.83;8.20;;;11.10;99.90;;;;;;5023288;28;20255;-74
2024/04/06 01:57:16;;;;;;;8.73;8.10;;;11.10;99.90;;;;;;5040973;28;20276;-75
2024/04/06 01:59:46;;;;;;;8.93;8.30;;;11.10;99.90;;;;;;5046574;28;20227;-75
2024/04/06 02:02:11;;;;;;;8.80;8.20;;;11.20;99.90;;;;;;5030974;28;20190;-75
2024/04/06 02:04:40;;;;;;;9.00;8.30;;;11.20;99.90;;;;;;5035102;28;20252;-75
2024/04/06 02:07:05;;;;;;;9.03;8.40;;;11.30;99.90;;;;;;5040411;28;20194;-75
2024/04/06 02:09:32;;;;;;;9.30;8.60;;;11.30;99.90;;;;;;5022072;28;20317;-75
2024/04/06 02:11:58;;;;;;;8.43;7.83;;;11.30;99.90;;;;;;5043220;28;20745;-75
2024/04/06 02:14:25;;;;;;;8.73;8.03;;;11.40;99.90;;;;;;5040435;28;20285;-75
2024/04/06 02:16:52;;;;;;;9.23;8.53;;;11.40;99.90;;;;;;5038767;28;20219;-74
2024/04/06 02:19:19;;;;;;;8.83;8.23;;;11.50;99.90;;;;;;5024977;28;20693;-75
2024/04/06 02:21:45;;;;;;;8.20;7.70;;;11.50;99.90;;;;;;5027339;28;20204;-75
2024/04/06 02:24:11;;;;;;;9.00;8.17;;;11.50;99.90;;;;;;5044745;28;20711;-75
2024/04/06 02:26:37;;;;;;;8.30;7.70;;;11.50;99.90;;;;;;5038716;28;20236;-75
2024/04/06 02:29:04;;;;;;;7.90;7.40;;;11.50;99.90;;;;;;5030308;28;20246;-75
2024/04/06 02:31:30;;;;;;;8.27;7.67;;;11.50;99.90;;;;;;5041445;28;20280;-75
2024/04/06 02:33:58;;;;;;;8.50;7.90;;;11.40;99.90;;;;;;5029050;28;20216;-75
2024/04/06 02:36:23;;;;;;;8.10;7.50;;;11.40;99.90;;;;;;5040968;28;20320;-75
2024/04/06 02:38:51;;;;;;;8.50;7.80;;;11.40;99.90;;;;;;5033979;28;20710;-75
2024/04/06 02:41:16;;;;;;;7.53;7.03;;;11.40;99.90;;;;;;5043125;28;20206;-75
2024/04/06 02:43:43;;;;;;;7.60;7.10;;;11.40;99.90;;;;;;5042037;28;20273;-75
2024/04/06 02:46:10;;;;;;;8.03;7.43;;;11.50;99.90;;;;;;5021325;28;20675;-75
2024/04/06 02:48:37;;;;;;;7.63;7.13;;;11.60;99.90;;;;;;5032601;28;20215;-75
2024/04/06 02:51:04;;;;;;;7.37;6.93;;;11.80;99.90;;;;;;5040074;28;20203;-75
2024/04/06 02:53:31;;;;;;;7.67;7.07;;;11.80;99.90;;;;;;5039978;28;20195;-75
2024/04/06 02:55:57;;;;;;;7.50;7.00;;;11.90;99.90;;;;;;5043525;28;20206;-75
2024/04/06 02:58:24;;;;;;;7.40;6.90;;;11.90;99.90;;;;;;5008390;28;20265;-75
2024/04/06 03:00:50;;;;;;;7.63;7.10;;;12.00;99.90;;;;;;5018258;28;20570;-74
2024/04/06 03:03:16;;;;;;;7.60;7.10;;;12.00;99.90;;;;;;5033915;28;20315;-74
2024/04/06 03:05:42;;;;;;;7.50;7.00;;;12.00;99.90;;;;;;5040477;28;20702;-79
2024/04/06 03:08:11;;;;;;;7.83;7.23;;;12.00;99.90;;;;;;5028820;28;20208;-78
2024/04/06 03:10:37;;;;;;;7.40;6.90;;;11.90;99.90;;;;;;5029300;28;20250;-79
2024/04/06 03:13:04;;;;;;;7.13;6.63;;;11.90;99.90;;;;;;5032899;28;20192;-77
2024/04/06 03:15:30;;;;;;;7.60;7.00;;;11.80;99.90;;;;;;5015903;28;20197;-76
2024/04/06 03:17:57;;;;;;;7.03;6.57;;;11.70;99.90;;;;;;5019469;28;20763;-76
2024/04/06 03:20:23;;;;;;;7.40;6.80;;;11.70;99.90;;;;;;5044184;28;20237;-77
2024/04/06 03:23:00;;;;;;;7.20;6.70;;;11.60;99.90;;;;;;5046185;28;20556;-77
2024/04/06 03:25:28;;;;;;;7.20;6.70;;;11.50;99.90;;;;;;5027850;28;20215;-76
2024/04/06 03:27:55;;;;;;;7.37;6.77;;;11.40;99.90;;;;;;5027949;28;20250;-77
2024/04/06 03:30:21;;;;;;;8.20;7.60;;;11.40;99.90;;;;;;5041743;28;20942;-76
2024/04/06 03:32:49;;;;;;;7.53;6.93;;;11.30;99.90;;;;;;5044820;28;20195;-77
2024/04/06 03:35:15;;;;;;;7.47;6.87;;;11.30;99.90;;;;;;5006485;28;20204;-76
2024/04/06 03:37:42;;;;;;;7.50;6.90;;;11.20;99.90;;;;;;5021044;28;20231;-76
2024/04/06 03:40:10;;;;;;;7.90;7.30;;;11.20;99.90;;;;;;5051006;28;20662;-76
2024/04/06 03:42:40;;;;;;;7.50;7.00;;;11.20;99.90;;;;;;5040985;28;20248;-77
2024/04/06 03:45:06;;;;;;;7.90;7.20;;;11.10;99.90;;;;;;5035292;28;20562;-77
2024/04/06 03:47:33;;;;;;;7.80;7.10;;;11.00;99.90;;;;;;5042002;28;20210;-77
2024/04/06 03:49:59;;;;;;;7.40;6.90;;;11.00;99.90;;;;;;5027796;28;20227;-77
2024/04/06 03:52:26;;;;;;;7.97;7.37;;;11.00;99.90;;;;;;5041516;28;20226;-76
2024/04/06 03:54:52;;;;;;;8.33;7.67;;;11.00;99.90;;;;;;5039276;28;20243;-77
2024/04/06 03:57:19;;;;;;;7.93;7.33;;;10.90;99.90;;;;;;5043538;28;20211;-77
2024/04/06 03:59:46;;;;;;;8.23;7.50;;;10.90;99.90;;;;;;5033151;28;20223;-77
2024/04/06 04:02:13;;;;;;;8.27;7.50;;;10.90;99.90;;;;;;5025242;28;20211;-75
2024/04/06 04:04:39;;;;;;;7.93;7.33;;;10.90;99.90;;;;;;5013969;28;20214;-76
2024/04/06 04:07:06;;;;;;;7.90;7.30;;;10.80;99.90;;;;;;5032675;28;20327;-76
2024/04/06 04:09:32;;;;;;;7.90;7.40;;;10.80;99.90;;;;;;5044152;28;20282;-76
2024/04/06 04:11:59;;;;;;;7.90;7.30;;;10.70;99.90;;;;;;5044451;28;20226;-76
2024/04/06 04:14:25;;;;;;;7.97;7.27;;;10.70;99.90;;;;;;5038219;28;20224;-75
2024/04/06 04:16:53;;;;;;;8.20;7.60;;;10.60;99.90;;;;;;5044566;28;20242;-75
2024/04/06 04:19:19;;;;;;;8.13;7.53;;;10.60;99.90;;;;;;5049199;22;20288;-74
2024/04/06 04:21:46;;;;;;;8.30;7.70;;;10.50;99.90;;;;;;5006402;28;20205;-74
2024/04/06 04:24:11;;;;;;;8.63;8.03;;;10.50;99.90;;;;;;5011446;28;20211;-75
2024/04/06 04:26:38;;;;;;;8.37;7.77;;;10.40;99.90;;;;;;5013050;28;20256;-74
2024/04/06 04:29:04;;;;;;;8.63;7.93;;;10.40;99.90;;;;;;5030510;28;20255;-74
2024/04/06 04:31:31;;;;;;;8.90;8.20;;;10.40;99.90;;;;;;5017028;28;20234;-74
2024/04/06 04:33:58;;;;;;;7.70;7.10;;;10.40;99.90;;;;;;4999797;28;20752;-74
2024/04/06 04:36:25;;;;;;;8.90;8.30;;;10.30;99.90;;;;;;5021423;28;20666;-75
2024/04/06 04:38:51;;;;;;;8.47;7.60;;;10.30;99.90;;;;;;5019398;28;20233;-75
2024/04/06 04:41:17;;;;;;;8.10;7.50;;;10.30;99.90;;;;;;5004688;28;20201;-74
2024/04/06 04:43:43;;;;;;;8.20;7.60;;;10.30;99.90;;;;;;5019233;28;20198;-75
2024/04/06 04:46:11;;;;;;;8.60;8.00;;;10.20;99.90;;;;;;5010529;28;20273;-78
2024/04/06 04:48:51;;;;;;;9.03;8.33;;;10.20;99.90;;;;;;5015610;28;20218;-76
2024/04/06 04:51:19;;;;;;;8.70;7.90;;;10.20;99.90;;;;;;5013549;28;20592;-76
2024/04/06 04:53:45;;;;;;;8.37;7.60;;;10.20;99.90;;;;;;5018067;28;20689;-76
2024/04/06 04:56:12;;;;;;;7.80;7.30;;;10.20;99.90;;;;;;5024425;28;20221;-78
2024/04/06 04:58:38;;;;;;;8.20;7.53;;;10.20;99.90;;;;;;5004027;28;20730;-76
2024/04/06 05:01:05;;;;;;;8.40;7.80;;;10.20;99.90;;;;;;5025351;28;20202;-77
2024/04/06 05:03:31;;;;;;;8.50;7.90;;;10.30;99.90;;;;;;5000393;28;20213;-79
2024/04/06 05:05:58;;;;;;;8.20;7.60;;;10.30;99.90;;;;;;5017189;28;20199;-78
2024/04/06 05:08:25;;;;;;;8.70;8.10;;;10.30;99.90;;;;;;5016194;28;20267;-77
2024/04/06 05:10:52;;;;;;;8.53;7.90;;;10.30;99.90;;;;;;5004839;28;20202;-77
2024/04/06 05:13:18;;;;;;;8.50;7.90;;;10.30;99.90;;;;;;5011397;28;20194;-78
2024/04/06 05:15:48;;;;;;;8.13;7.53;;;10.30;99.90;;;;;;4998481;28;20189;-74
2024/04/06 05:18:13;;;;;;;8.73;8.07;;;10.30;99.90;;;;;;5013695;28;20230;-74
2024/04/06 05:20:40;;;;;;;8.73;8.13;;;10.30;99.90;;;;;;5017523;28;20255;-74
2024/04/06 05:23:06;;;;;;;9.27;8.47;;;10.30;99.90;;;;;;5016885;28;20743;-74
2024/04/06 05:25:34;;;;;;;8.77;8.00;;;10.30;99.90;;;;;;5006057;28;20200;-75
2024/04/06 05:28:00;;;;;;;8.13;7.53;;;10.30;99.90;;;;;;5013856;28;20213;-74
2024/04/06 05:30:27;;;;;;;9.40;8.70;;;10.30;99.90;;;;;;5021242;28;20674;-78
2024/04/06 05:32:53;;;;;;;8.60;8.00;;;10.50;99.90;;;;;;5005851;28;20211;-77
2024/04/06 05:35:19;;;;;;;8.33;7.63;;;10.60;99.90;;;;;;5022522;28;20601;-77
2024/04/06 05:37:45;;;;;;;8.40;7.80;;;10.80;99.90;;;;;;5028295;28;20624;-77
2024/04/06 05:40:12;;;;;;;8.90;8.20;;;10.90;99.90;;;;;;5010405;28;20197;-77
2024/04/06 05:42:39;;;;;;;8.80;8.10;;;11.10;99.90;;;;;;5021216;28;20210;-78
2024/04/06 05:45:07;;;;;;;8.47;7.67;;;11.30;99.90;;;;;;5016101;28;20290;-76
2024/04/06 05:47:34;;;;;;;8.57;7.90;;;11.50;99.90;;;;;;5018425;28;20196;-77
2024/04/06 05:50:00;;;;;;;8.63;7.93;;;11.70;99.90;;;;;;4997297;28;20583;-77
2024/04/06 05:52:26;;;;;;;8.90;8.20;;;11.90;99.90;;;;;;4996300;28;20204;-77
2024/04/06 05:54:53;;;;;;;8.03;7.53;;;12.10;99.90;;;;;;5022192;28;20546;-78
2024/04/06 05:57:19;;;;;;;8.10;7.40;;;12.30;99.90;;;;;;5018219;28;20350;-77
2024/04/06 05:59:47;;;;;;;7.17;6.57;;;12.50;99.90;;;;;;5025349;28;20764;-77
2024/04/06 06:02:12;;;;;;;7.63;7.03;;;12.70;99.90;;;;;;5032581;28;20223;-75
2024/04/06 06:04:39;;;;;;;8.37;7.77;;;12.80;99.90;;;;;;5018165;28;20274;-75
2024/04/06 06:07:05;;;;;;;7.27;6.73;;;13.00;99.90;;;;;;5023556;28;20263;-74
2024/04/06 06:09:33;;;;;;;6.60;6.00;;;13.10;99.90;;;;;;5004627;28;20220;-73
2024/04/06 06:11:59;;;;;;;8.07;7.27;;;13.30;99.90;;;;;;5023762;28;20223;-76
2024/04/06 06:14:27;;;;;;;8.20;7.50;;;13.50;99.90;;;;;;5007161;28;20671;-77
2024/04/06 06:16:55;;;;;;;5.50;5.10;;;13.60;99.90;;;;;;4997891;28;20309;-77
2024/04/06 06:19:21;;;;;;;5.83;5.43;;;13.80;99.90;;;;;;4994999;28;20246;-77
2024/04/06 06:21:47;;;;;;;5.33;5.03;;;14.00;99.90;;;;;;4996634;28;20212;-76
2024/04/06 06:24:14;;;;;;;6.50;6.00;;;14.10;99.90;;;;;;5012386;28;20193;-76
2024/04/06 06:26:40;;;;;;;5.80;5.20;;;14.30;99.90;;;;;;5023055;28;20597;-77
2024/04/06 06:29:06;;;;;;;4.60;4.20;;;14.40;99.90;;;;;;5030711;28;20301;-79
2024/04/06 06:31:32;;;;;;;3.33;2.80;;;14.50;99.90;;;;;;5008978;28;20218;-77
2024/04/06 06:34:01;;;;;;;3.53;2.63;;;14.50;99.90;;;;;;5015329;28;20218;-77
2024/04/06 06:36:26;;;;;;;3.67;2.80;;;14.70;99.90;;;;;;5012686;28;20688;-78
2024/04/06 06:38:54;;;;;;;2.87;2.60;;;14.90;99.90;;;;;;5005907;28;20229;-78
2024/04/06 06:41:20;;;;;;;3.37;2.70;;;15.00;99.90;;;;;;5034192;28;20557;-76
2024/04/06 06:43:47;;;;;;;3.53;2.77;;;15.20;99.90;;;;;;5009448;28;20222;-77
2024/04/06 06:46:13;;;;;;;3.00;2.70;;;15.20;99.90;;;;;;5024111;28;20207;-76
2024/04/06 06:48:40;;;;;;;2.90;2.70;;;15.30;99.90;;;;;;5024644;28;20221;-77
2024/04/06 06:51:08;;;;;;;3.17;2.87;;;15.40;99.90;;;;;;5023050;28;20683;-77
2024/04/06 06:53:35;;;;;;;5.60;5.20;;;15.40;99.90;;;;;;5004369;28;20674;-78
2024/04/06 06:56:01;;;;;;;4.90;4.50;;;15.50;99.90;;;;;;5029966;28;20670;-77
2024/04/06 06:58:27;;;;;;;6.40;5.90;;;15.60;99.90;;;;;;4998417;28;20217;-77
2024/04/06 07:00:53;;;;;;;5.30;4.90;;;15.70;99.90;;;;;;5022822;28;20621;-77
2024/04/06 07:03:20;;;;;;;5.27;4.87;;;15.90;99.90;;;;;;5018095;28;20211;-79
2024/04/06 07:05:46;;;;;;;4.97;4.57;;;16.10;99.90;;;;;;5015975;28;20227;-79
2024/04/06 07:08:15;;;;;;;5.07;4.57;;;16.20;99.90;;;;;;5033897;28;20203;-78
2024/04/06 07:10:41;;;;;;;5.70;5.30;;;16.30;99.90;;;;;;4997036;28;20212;-77
2024/04/06 07:13:08;;;;;;;5.77;5.17;;;16.40;99.90;;;;;;5019491;28;20223;-78
2024/04/06 07:15:34;;;;;;;5.20;4.80;;;16.50;99.90;;;;;;5032331;28;20196;-78
2024/04/06 07:18:01;;;;;;;4.63;4.23;;;16.70;99.90;;;;;;5031831;28;20249;-76
2024/04/06 07:20:26;;;;;;;4.87;3.80;;;16.90;99.90;;;;;;5033903;28;20218;-77
2024/04/06 07:22:53;;;;;;;3.50;2.93;;;17.20;99.90;;;;;;5020714;28;20198;-78
2024/04/06 07:25:20;;;;;;;3.40;3.10;;;17.60;99.90;;;;;;4997025;28;20211;-81
2024/04/06 07:27:47;;;;;;;3.77;2.87;;;17.60;99.90;;;;;;5008371;28;20203;-76
2024/04/06 07:30:13;;;;;;;4.17;3.10;;;17.80;99.90;;;;;;5030550;28;20709;-76
2024/04/06 07:32:40;;;;;;;6.03;4.00;;;17.90;99.90;;;;;;5016659;28;20196;-77
2024/04/06 07:35:09;;;;;;;6.97;6.30;;;18.10;99.90;;;;;;5027189;28;20207;-75
2024/04/06 07:37:36;;;;;;;6.27;5.77;;;18.40;99.90;;;;;;5005086;28;20216;-76
2024/04/06 07:40:04;;;;;;;6.13;5.53;;;19.00;99.90;;;;;;5016954;28;20579;-76
2024/04/06 07:42:32;;;;;;;6.63;6.13;;;19.50;99.90;;;;;;5003370;28;20252;-74
2024/04/06 07:44:58;;;;;;;6.00;5.50;;;19.50;99.90;;;;;;5017938;28;20201;-74
2024/04/06 07:47:28;;;;;;;5.70;5.30;;;19.70;99.90;;;;;;5020222;28;20250;-75
2024/04/06 07:49:54;;;;;;;6.10;5.50;;;20.10;99.90;;;;;;5026266;28;20222;-74
2024/04/06 07:52:21;;;;;;;6.90;6.20;;;20.60;99.90;;;;;;5006022;28;20199;-75
2024/04/06 07:54:50;;;;;;;11.00;6.57;;;20.90;99.90;;;;;;5000727;28;20216;-74
2024/04/06 07:57:17;;;;;;;4.07;3.53;;;21.20;99.90;;;;;;5003641;28;20279;-74
2024/04/06 07:59:45;;;;;;;5.23;4.00;;;21.60;99.90;;;;;;5011727;28;20745;-75
2024/04/06 08:02:11;;;;;;;6.87;5.43;;;21.80;99.90;;;;;;5028299;28;20242;-75
2024/04/06 08:04:37;;;;;;;5.30;4.90;;;21.80;99.90;;;;;;4991538;28;20263;-75
2024/04/06 08:07:06;;;;;;;6.40;5.90;;;22.00;99.90;;;;;;5025450;28;20199;-74
2024/04/06 08:09:32;;;;;;;5.80;5.30;;;22.10;99.90;;;;;;4997308;28;20224;-74
2024/04/06 08:11:59;;;;;;;7.13;6.63;;;22.00;99.90;;;;;;5016419;28;20652;-74
2024/04/06 08:14:25;;;;;;;6.37;5.90;;;22.10;99.90;;;;;;5021614;28;20889;-75
2024/04/06 08:16:53;;;;;;;7.07;6.47;;;22.10;99.90;;;;;;5027324;28;20192;-74
2024/04/06 08:19:19;;;;;;;6.87;6.20;;;22.30;99.90;;;;;;5009027;28;20220;-75
2024/04/06 08:21:46;;;;;;;6.70;6.20;;;22.30;99.90;;;;;;5003145;28;20195;-75
2024/04/06 08:24:12;;;;;;;6.90;6.30;;;22.30;99.90;;;;;;5020607;28;20594;-75
2024/04/06 08:26:39;;;;;;;6.47;5.70;;;22.20;99.90;;;;;;5004576;28;20299;-74
2024/04/06 08:29:04;;;;;;;6.80;6.20;;;22.00;99.90;;;;;;5002806;28;20649;-74
2024/04/06 08:31:31;;;;;;;6.70;6.20;;;22.00;99.90;;;;;;5011273;28;20227;-75
2024/04/06 08:33:58;;;;;;;6.37;5.77;;;22.20;99.90;;;;;;5023833;28;21051;-74
2024/04/06 08:36:25;;;;;;;6.47;5.97;;;22.40;99.90;;;;;;5020515;28;20206;-75
2024/04/06 08:38:51;;;;;;;5.10;4.53;;;22.70;99.90;;;;;;5002783;28;20750;-81
2024/04/06 08:41:18;;;;;;;5.90;5.40;;;22.90;99.90;;;;;;5005942;28;20332;-76
2024/04/06 08:43:44;;;;;;;6.30;5.80;;;22.90;99.90;;;;;;5021541;28;20197;-76
2024/04/06 08:46:11;;;;;;;7.17;6.67;;;22.90;99.90;;;;;;5013417;28;20224;-74
2024/04/06 08:48:38;;;;;;;12.03;11.13;;;23.10;99.90;;;;;;5010247;28;20216;-74
2024/04/06 08:51:09;;;;;;;9.07;8.17;;;22.90;99.90;;;;;;4997359;28;20633;-74
2024/04/06 08:53:35;;;;;;;8.37;7.87;;;22.90;99.90;;;;;;5030781;28;20204;-74
2024/04/06 08:56:06;;;;;;;6.47;5.97;;;23.20;99.90;;;;;;4995199;28;20196;-74
2024/04/06 08:58:33;;;;;;;6.43;6.00;;;23.50;99.90;;;;;;5001127;28;20761;-78
2024/04/06 09:01:01;;;;;;;6.60;6.00;;;23.80;99.90;;;;;;5024098;28;20280;-75
2024/04/06 09:03:28;;;;;;;6.83;6.23;;;24.20;99.90;;;;;;5015472;28;20280;-74
2024/04/06 09:05:55;;;;;;;6.83;6.33;;;24.10;99.90;;;;;;5014337;28;20199;-74
2024/04/06 09:08:22;;;;;;;7.10;6.50;;;24.30;99.90;;;;;;5008825;28;20349;-74
2024/04/06 09:10:53;;;;;;;7.17;6.57;;;24.30;99.90;;;;;;5026622;28;20200;-74
2024/04/06 09:13:20;;;;;;;6.97;6.43;;;24.00;99.90;;;;;;5017485;28;20228;-74
2024/04/06 09:15:47;;;;;;;7.20;6.60;;;24.00;99.90;;;;;;4997911;28;20192;-74
2024/04/06 09:18:13;;;;;;;6.80;6.10;;;24.10;99.90;;;;;;5017317;28;20278;-74
2024/04/06 09:20:39;;;;;;;7.00;6.50;;;24.40;99.90;;;;;;5027166;28;20196;-74
2024/04/06 09:23:05;;;;;;;7.10;6.50;;;24.60;99.90;;;;;;5017403;28;20208;-74
2024/04/06 09:25:33;;;;;;;6.97;6.37;;;24.70;99.90;;;;;;5030211;28;20265;-74
2024/04/06 09:27:59;;;;;;;6.30;5.90;;;25.00;99.90;;;;;;5017616;28;20247;-74
2024/04/06 09:30:35;;;;;;;5.23;4.83;;;25.20;99.90;;;;;;5031087;28;20188;-74
2024/04/06 09:33:03;;;;;;;3.97;3.67;;;25.40;99.90;;;;;;5028224;28;20206;-74
2024/04/06 09:35:31;;;;;;;3.27;3.07;;;25.70;99.90;;;;;;5020386;28;20257;-74
2024/04/06 09:37:58;;;;;;;7.70;5.87;;;25.90;99.90;;;;;;5026444;28;20691;-74
2024/04/06 09:40:26;;;;;;;6.30;5.80;;;26.00;99.90;;;;;;5026590;28;20276;-75
2024/04/06 09:42:53;;;;;;;5.80;5.40;;;25.80;99.90;;;;;;5030701;28;20666;-74
2024/04/06 09:45:21;;;;;;;5.43;5.03;;;25.80;99.90;;;;;;5027166;28;20482;-74
2024/04/06 09:47:47;;;;;;;4.90;4.50;;;25.90;99.90;;;;;;5026086;28;20204;-74
2024/04/06 09:50:17;;;;;;;6.10;5.60;;;26.20;99.90;;;;;;5026220;28;20192;-75
2024/04/06 09:52:43;;;;;;;4.60;4.20;;;26.50;99.90;;;;;;5009466;28;20626;-74
2024/04/06 09:55:10;;;;;;;4.80;4.40;;;26.60;99.90;;;;;;5010840;28;20203;-74
2024/04/06 09:57:36;;;;;;;5.13;4.70;;;26.70;99.90;;;;;;5021808;28;20197;-78
2024/04/06 10:00:07;;;;;;;3.50;3.20;;;26.70;99.90;;;;;;5025515;28;20228;-77
2024/04/06 10:02:33;;;;;;;5.13;4.73;;;26.80;99.90;;;;;;5019801;28;20209;-77
2024/04/06 10:05:05;;;;;;;5.33;4.93;;;26.60;99.90;;;;;;5024566;28;20655;-77
2024/04/06 10:07:32;;;;;;;4.97;4.60;;;26.60;99.90;;;;;;5024866;28;20201;-76
2024/04/06 10:10:00;;;;;;;5.20;4.80;;;26.50;99.90;;;;;;5024644;28;20231;-77
2024/04/06 10:12:37;;;;;;;5.83;5.00;;;26.50;99.90;;;;;;5004048;28;20200;-78
2024/04/06 10:15:08;;;;;;;5.37;4.97;;;26.40;99.90;;;;;;5023250;28;20189;-77
2024/04/06 10:17:42;;;;;;;5.30;4.87;;;26.50;99.90;;;;;;5025100;28;20275;-77
2024/04/06 10:20:10;;;;;;;5.60;5.20;;;26.50;99.90;;;;;;5052920;23;20234;-81
2024/04/06 10:22:43;;;;;;;5.60;5.20;;;26.50;99.90;;;;;;5065917;28;20665;-81
2024/04/06 10:25:11;;;;;;;5.10;4.80;;;26.60;99.90;;;;;;5039603;28;20198;-81
2024/04/06 10:27:40;;;;;;;5.20;4.90;;;26.60;99.90;;;;;;5053263;28;20206;-80
2024/04/06 10:30:08;;;;;;;5.30;4.90;;;26.60;99.90;;;;;;5037886;28;20294;-80
2024/04/06 10:32:34;;;;;;;5.13;4.83;;;26.50;99.90;;;;;;5054954;28;20195;-81
2024/04/06 10:35:03;;;;;;;5.17;4.87;;;26.30;99.90;;;;;;5035914;28;20202;-80
2024/04/06 10:37:29;;;;;;;5.20;4.90;;;26.20;99.90;;;;;;5037086;28;20662;-80
2024/04/06 10:39:56;;;;;;;4.90;4.60;;;26.10;98.90;;;;;;5037024;28;20215;-81
2024/04/06 10:42:25;;;;;;;5.57;5.17;;;26.30;99.20;;;;;;5047891;28;20192;-80
2024/04/06 10:44:52;;;;;;;4.63;4.23;;;26.30;99.00;;;;;;5037169;28;20729;-80
2024/04/06 10:47:19;;;;;;;4.70;4.40;;;26.30;99.30;;;;;;5036511;28;20629;-82
2024/04/06 10:49:47;;;;;;;5.60;5.13;;;26.30;98.30;;;;;;5033077;28;20735;-78
2024/04/06 10:52:14;;;;;;;5.57;5.17;;;26.30;97.80;;;;;;5029684;28;20203;-81
2024/04/06 10:54:41;;;;;;;5.80;5.40;;;26.20;97.20;;;;;;5050655;28;20195;-80
2024/04/06 10:57:07;;;;;;;5.33;4.93;;;26.00;96.30;;;;;;5052339;28;20233;-79
2024/04/06 10:59:34;;;;;;;5.03;4.63;;;25.90;93.80;;;;;;5034045;28;20211;-80
2024/04/06 11:02:00;;;;;;;4.63;4.07;;;26.00;93.20;;;;;;5047680;28;20184;-79
2024/04/06 11:04:28;;;;;;;4.60;4.20;;;26.10;92.50;;;;;;5030596;28;20629;-80
2024/04/06 11:06:54;;;;;;;4.40;4.00;;;26.30;92.40;;;;;;5053282;28;20257;-79
2024/04/06 11:09:21;;;;;;;4.50;4.10;;;26.30;92.40;;;;;;5034390;28;20230;-80
2024/04/06 11:11:46;;;;;;;4.20;3.80;;;26.50;89.20;;;;;;5052841;28;20657;-80
2024/04/06 11:14:13;;;;;;;4.10;3.80;;;26.50;88.40;;;;;;5044847;28;20252;-80
2024/04/06 11:16:41;;;;;;;3.60;3.40;;;26.50;86.80;;;;;;5034406;28;20199;-80
2024/04/06 11:19:09;;;;;;;3.70;3.50;;;26.50;87.10;;;;;;5031299;28;20645;-81
2024/04/06 11:21:37;;;;;;;3.80;3.50;;;26.60;88.10;;;;;;5029639;28;20231;-80
2024/04/06 11:24:04;;;;;;;3.90;3.60;;;26.60;88.00;;;;;;5027687;28;20294;-79
2024/04/06 11:26:30;;;;;;;4.00;3.70;;;26.60;88.10;;;;;;5052481;28;20203;-79
2024/04/06 11:28:57;;;;;;;3.60;3.40;;;26.70;89.10;;;;;;5034042;28;20227;-79
2024/04/06 11:31:23;;;;;;;3.60;3.40;;;26.80;90.30;;;;;;5028108;28;20203;-79
2024/04/06 11:33:50;;;;;;;3.30;3.10;;;26.70;85.80;;;;;;5034348;28;20282;-79
2024/04/06 11:36:16;;;;;;;3.33;3.13;;;26.70;85.70;;;;;;5034577;28;20203;-81
2024/04/06 11:38:44;;;;;;;3.60;3.40;;;26.70;85.60;;;;;;5036040;28;20253;-80
2024/04/06 11:41:10;;;;;;;3.97;3.67;;;26.70;86.20;;;;;;5025950;28;20779;-80
2024/04/06 11:43:36;;;;;;;4.00;3.80;;;26.70;87.50;;;;;;5030962;28;20199;-80
2024/04/06 11:46:03;;;;;;;4.50;4.20;;;26.70;84.30;;;;;;5025710;28;20204;-80
2024/04/06 11:48:30;;;;;;;4.63;4.33;;;26.70;80.00;;;;;;5043393;28;20713;-80
2024/04/06 11:50:55;;;;;;;4.47;4.07;;;26.60;81.20;;;;;;5034350;28;20203;-80
2024/04/06 11:53:22;;;;;;;4.20;4.00;;;26.50;79.60;;;;;;5028241;28;20658;-80
2024/04/06 11:55:49;;;;;;;3.97;3.67;;;26.50;78.80;;;;;;5043294;28;20556;-80
2024/04/06 11:58:17;;;;;;;4.17;3.80;;;26.50;78.80;;;;;;5045039;28;20203;-79
2024/04/06 12:00:43;;;;;;;3.70;3.50;;;26.40;78.30;;;;;;5034271;28;20277;-80
2024/04/06 12:03:09;;;;;;;3.80;3.50;;;26.50;78.10;;;;;;5032154;28;20664;-80
2024/04/06 12:05:35;;;;;;;3.60;3.40;;;26.50;80.80;;;;;;5034248;28;20261;-80
2024/04/06 12:08:02;;;;;;;3.57;3.30;;;26.60;80.20;;;;;;5031942;28;20202;-79
2024/04/06 12:10:31;;;;;;;3.57;3.37;;;26.70;81.80;;;;;;5031243;28;20219;-80
2024/04/06 12:12:59;;;;;;;3.50;3.30;;;26.70;79.60;;;;;;5026670;28;20578;-81
2024/04/06 12:15:25;;;;;;;3.43;3.20;;;26.70;78.40;;;;;;5034638;28;20209;-80
2024/04/06 12:17:51;;;;;;;3.80;3.50;;;26.60;77.70;;;;;;5034257;28;20202;-80
2024/04/06 12:20:17;;;;;;;3.67;3.37;;;26.70;79.80;;;;;;5033911;28;20230;-80
2024/04/06 12:22:44;;;;;;;3.60;3.30;;;26.70;79.90;;;;;;5034533;28;20387;-80
2024/04/06 12:25:10;;;;;;;3.90;3.67;;;26.70;79.70;;;;;;5034310;28;20209;-80
2024/04/06 12:27:37;;;;;;;3.53;3.33;;;26.70;78.80;;;;;;5043762;28;20250;-80
2024/04/06 12:30:11;;;;;;;4.00;3.60;;;26.70;79.80;;;;;;5041430;28;20284;-78
2024/04/06 12:32:38;;;;;;;4.00;3.63;;;26.70;79.50;;;;;;5048849;28;20226;-79
2024/04/06 12:35:04;;;;;;;3.60;3.40;;;26.70;79.60;;;;;;5026239;28;20658;-80
2024/04/06 12:37:35;;;;;;;4.10;3.80;;;26.70;80.10;;;;;;5035060;28;20223;-80
2024/04/06 12:40:21;;;;;;;4.10;3.80;;;26.70;80.10;;;;;;5033373;28;20226;-80
2024/04/06 12:42:57;;;;;;;4.20;3.90;;;26.80;81.10;;;;;;5046269;28;20777;-84
2024/04/06 12:45:28;;;;;;;3.87;3.57;;;26.80;80.50;;;;;;5033042;28;20268;-80